Darstellungsparameter: Aktuell verwendete Einstellungen:
Skalierung der Graphiken ... ?
xyx+y,   Skalierungsfaktor:      Skalierung: Modus: x, Faktor: 1
Darstellungszeitraum ... ?
Vom - - bis: - -   Zeitraum: 17.08.2008 - 16.11.2008
Min/Max/Avg-Anzeige ... ?
Zeige MMA aktuell
Zeige MMA Monat
Zeige MMA alles
Zeige --A aktuell
Zeige --A Monat
Zeige --A alles
Keine MMA-Anzeige
MMA:
Average (ber die Originaldaten)
MMA-Basis: 17.04.2019 - 19.05.2019
Quicknavigation für Darstellung... ?
Tage:      1T, 2T, 3T, 5T -1T -2T -3T -5T +1T +2T +3T +5T
Wochen: 1W, 2W, 3W -1W -2W -3W +1W +2W +3W
Monate: 1M, 3M, 6M -1M -3M -6M +1M +3M +6M
Jahre:    1J, 3J, 5J, 10J -1J -3J -5J -10J +1J +3J +5J +10J
Nutze für die Darstellung ... ?
Originaldaten oder ...
Mittelwerte Minima Maxima auf...
Stundenbasis Tagesbasis Wochenbasis
Monatsbasis Jahresbasis      Datenbasis: Mittelwerte auf Tagesbasis
Darstellen als:
Statistik (Auto) Statistik J:M      Darstellung:
Zur Graphik,    zurück zur Übersicht aller Sensoren.
 
Tabellarische Datenbersicht: ?
 
Sensor: Nr:Datum:Temp:Abs-Feuchte:Windchill:Wind:
Aussen-T/F 1 17-08-2008 00:00:00 19.10252 C 8.4 g/m*3 19.1 C 0 km/h
2 18-08-2008 00:00:00 21.21 C 10.7 g/m*3 21.21 C 0 km/h
3 19-08-2008 00:00:00 20.7925 C 9.67 g/m*3 20.79 C 0 km/h
4 20-08-2008 00:00:00 18.82 C 9.37 g/m*3 18.82 C 0 km/h
5 21-08-2008 00:00:00 19.6375 C 8.99 g/m*3 19.64 C 0 km/h
6 22-08-2008 00:00:00 18.45333 C 11.1 g/m*3 18.45 C 0 km/h
7 23-08-2008 00:00:00 14.95083 C 9.15 g/m*3 14.95 C 0 km/h
8 24-08-2008 00:00:00 16.59333 C 8.67 g/m*3 16.59 C 0 km/h
9 25-08-2008 00:00:00 17.43583 C 10.93 g/m*3 17.44 C 0 km/h
10 26-08-2008 00:00:00 19.2725 C 10.13 g/m*3 19.27 C 0 km/h
11 27-08-2008 00:00:00 19.89833 C 10.62 g/m*3 19.9 C 0 km/h
12 28-08-2008 00:00:00 20.35417 C 9.37 g/m*3 20.35 C 0 km/h
13 29-08-2008 00:00:00 20.84454 C 9.74 g/m*3 20.84 C 0 km/h
14 30-08-2008 00:00:00 21.35167 C 10.94 g/m*3 21.35 C 0 km/h
15 31-08-2008 00:00:00 22.25917 C 10.49 g/m*3 22.26 C 0 km/h
16 01-09-2008 00:00:00 20.93917 C 10.36 g/m*3 20.94 C 0 km/h
17 02-09-2008 00:00:00 19.11333 C 9.31 g/m*3 19.11 C 0 km/h
18 03-09-2008 00:00:00 15.21083 C 10.42 g/m*3 15.21 C 0 km/h
19 04-09-2008 00:00:00 13.7025 C 7.94 g/m*3 13.7 C 0 km/h
20 05-09-2008 00:00:00 16.9775 C 10.5 g/m*3 16.98 C 0 km/h
21 06-09-2008 00:00:00 17.5625 C 11.38 g/m*3 17.56 C 0 km/h
22 07-09-2008 00:00:00 16.83583 C 9.34 g/m*3 16.84 C 0 km/h
23 08-09-2008 00:00:00 17.9741 C 8.43 g/m*3 17.97 C 0 km/h
24 09-09-2008 00:00:00 18.12014 C 9.04 g/m*3 18.12 C 0 km/h
25 10-09-2008 00:00:00 21.10243 C 10.72 g/m*3 21.1 C 0 km/h
Sensor: Nr:Datum:Temp:Abs-Feuchte:Windchill:Wind:
Aussen-T/F 26 11-09-2008 00:00:00 19.94479 C 12.52 g/m*3 19.94 C 0 km/h
27 12-09-2008 00:00:00 16.69236 C 12.91 g/m*3 16.69 C 0 km/h
28 13-09-2008 00:00:00 12.63937 C 10.07 g/m*3 12.64 C 0 km/h
29 14-09-2008 00:00:00 11.66215 C 6.19 g/m*3 11.66 C 0 km/h
30 15-09-2008 00:00:00 10.27153 C 7.08 g/m*3 10.27 C 0 km/h
31 16-09-2008 00:00:00 11.32014 C 7.11 g/m*3 11.32 C 0 km/h
32 17-09-2008 00:00:00 11.34948 C 5.77 g/m*3 11.35 C 0 km/h
33 18-09-2008 00:00:00 10.63264 C 5.3 g/m*3 10.63 C 0 km/h
34 19-09-2008 00:00:00 10.48333 C 6.14 g/m*3 10.48 C 0 km/h
35 20-09-2008 00:00:00 11.00556 C 6.26 g/m*3 11.01 C 0 km/h
36 21-09-2008 00:00:00 11.67222 C 6.89 g/m*3 11.67 C 0 km/h
37 22-09-2008 00:00:00 12.57108 C 7.54 g/m*3 12.57 C 0 km/h
38 23-09-2008 00:00:00 12.21111 C 8.35 g/m*3 12.21 C 0 km/h
39 24-09-2008 00:00:00 13.30799 C 9.32 g/m*3 13.31 C 0 km/h
40 25-09-2008 00:00:00 12.56736 C 7.77 g/m*3 12.57 C 0 km/h
41 26-09-2008 00:00:00 12.00521 C 7.09 g/m*3 12.01 C 0 km/h
42 27-09-2008 00:00:00 11.93693 C 7.15 g/m*3 11.94 C 0 km/h
43 28-09-2008 00:00:00 11.96493 C 7.21 g/m*3 11.96 C 0 km/h
44 29-09-2008 00:00:00 11.47396 C 7.33 g/m*3 11.47 C 0 km/h
45 30-09-2008 00:00:00 10.38611 C 7.67 g/m*3 10.39 C 0 km/h
46 01-10-2008 00:00:00 13.07222 C 8.43 g/m*3 13.07 C 0 km/h
47 02-10-2008 00:00:00 10.70244 C 6.41 g/m*3 10.7 C 0 km/h
48 03-10-2008 00:00:00 8.94063 C 6.04 g/m*3 8.94 C 0 km/h
49 04-10-2008 00:00:00 9.76632 C 5.66 g/m*3 9.77 C 0 km/h
50 05-10-2008 00:00:00 11.69062 C 6.1 g/m*3 11.69 C 0 km/h
Sensor: Nr:Datum:Temp:Abs-Feuchte:Windchill:Wind:
Aussen-T/F 51 06-10-2008 00:00:00 14.79306 C 10.16 g/m*3 14.79 C 0 km/h
52 07-10-2008 00:00:00 15.17875 C 10.24 g/m*3 15.18 C 0 km/h
53 08-10-2008 00:00:00 13.26389 C 10.6 g/m*3 13.26 C 0 km/h
54 09-10-2008 00:00:00 13.20937 C 8.82 g/m*3 13.21 C 0 km/h
55 10-10-2008 00:00:00 13.01806 C 8.66 g/m*3 13.02 C 0 km/h
56 11-10-2008 00:00:00 13.2125 C 9 g/m*3 13.21 C 0 km/h
57 12-10-2008 00:00:00 15.40729 C 9.68 g/m*3 15.41 C 0 km/h
58 13-10-2008 00:00:00 14.40976 C 9.47 g/m*3 14.41 C 0 km/h
59 14-10-2008 00:00:00 15.63438 C 9.35 g/m*3 15.63 C 0 km/h
60 15-10-2008 00:00:00 13.57361 C 8.88 g/m*3 13.57 C 0 km/h
61 16-10-2008 00:00:00 11.59444 C 8.43 g/m*3 11.59 C 0 km/h
62 17-10-2008 00:00:00 8.00313 C 6.15 g/m*3 8 C 0 km/h
63 18-10-2008 00:00:00 7.10488 C 5.92 g/m*3 7.1 C 0 km/h
64 19-10-2008 00:00:00 8.10521 C 6.25 g/m*3 8.11 C 0 km/h
65 20-10-2008 00:00:00 9.83646 C 7.21 g/m*3 9.84 C 0 km/h
66 21-10-2008 00:00:00 13.12986 C 9.32 g/m*3 13.13 C 0 km/h
67 22-10-2008 00:00:00 9.36528 C 7.49 g/m*3 9.37 C 0 km/h
68 23-10-2008 00:00:00 9.2115 C 6.5 g/m*3 9.21 C 0 km/h
69 24-10-2008 00:00:00 7.4434 C 6.07 g/m*3 7.44 C 0 km/h
70 25-10-2008 00:00:00 10.48151 C 7.39 g/m*3 10.48 C 0 km/h
71 26-10-2008 00:00:00 10.725 C 6.55 g/m*3 10.73 C 0 km/h
72 27-10-2008 00:00:00 10.21724 C 7.98 g/m*3 10.22 C 0 km/h
73 28-10-2008 00:00:00 6.92456 C 6.29 g/m*3 6.92 C 0 km/h
74 29-10-2008 00:00:00 5.45 C 5.63 g/m*3 5.45 C 0 km/h
75 30-10-2008 00:00:00 4.78947 C 6 g/m*3 4.79 C 0 km/h
Sensor: Nr:Datum:Temp:Abs-Feuchte:Windchill:Wind:
Aussen-T/F 76 31-10-2008 00:00:00 5.97414 C 6.34 g/m*3 5.97 C 0 km/h
77 01-11-2008 00:00:00 7.97414 C 7.15 g/m*3 7.97 C 0 km/h
78 02-11-2008 00:00:00 9.98772 C 7.86 g/m*3 9.99 C 0 km/h
79 03-11-2008 00:00:00 9.82241 C 7.83 g/m*3 9.82 C 0 km/h
80 04-11-2008 00:00:00 9.00351 C 7.82 g/m*3 9 C 0 km/h
81 05-11-2008 00:00:00 9.79828 C 7.68 g/m*3 9.8 C 0 km/h
82 06-11-2008 00:00:00 10.54483 C 7.37 g/m*3 10.54 C 0 km/h
83 07-11-2008 00:00:00 10.79123 C 7.22 g/m*3 10.79 C 0 km/h
84 08-11-2008 00:00:00 8.24828 C 6.77 g/m*3 8.25 C 0 km/h
85 09-11-2008 00:00:00 8.89583 C 7.31 g/m*3 8.9 C 0 km/h
86 10-11-2008 00:00:00 13.98833 C 7.91 g/m*3 13.99 C 0 km/h
87 11-11-2008 00:00:00 12.73917 C 6.46 g/m*3 12.74 C 0 km/h
88 12-11-2008 00:00:00 8.5175 C 6.56 g/m*3 8.52 C 0 km/h
89 13-11-2008 00:00:00 6.40667 C 6.06 g/m*3 6.41 C 0 km/h
90 14-11-2008 00:00:00 5.60833 C 5.47 g/m*3 5.61 C 0 km/h
91 15-11-2008 00:00:00 9.82083 C 7.04 g/m*3 9.82 C 0 km/h
92 16-11-2008 00:00:00 9.9375 C 7.83 g/m*3 9.94 C 0 km/h

Maximal/Minimal-Werte vom 17.04.2019 - 19.05.2019

Sensor Min Max Avg
Temp
(Aussen-T/F)
2.2 °C
13-05-2019  06:50:00
26.6 °C
24-04-2019  17:05:00
11.51 °C

Die Daten stammen von einer Davis Vantage Pro 2 Wetter-Station und werden unter Linux mit der Software wview2wettercgi und aufbereitet. Alle Angaben erfolgen ohne Gewähr für ihre Vollständigkeit oder Richtigkeit.
Kontakt: Rainer Krienke krienke@uni-koblenz.de . Meine Webseiten an der Uni Koblenz oder privat.
Version: $Revision: 0.78 $